• Join FlightAware (Why Join?)
  • Login
  • US Flag 
03:05AM EST


 

Airport Tracker/Info


-or-


 

Live Flight TrackerFlight Track Log ✈ FLG3310 ✈ 05-May-2013 ✈ KMCI - KMEM

Flight Track Log - Related Links

Times and Time Zones

All times are in EDT time to prevent confusion due to time zone crossing. See the FLG3310 flight status page for this flight to view local times or setup timezone preferences in your user account.

Time Position Orientation Groundspeed Altitude Reporting Facility
EDT Latitude Longitude Course Direction KTS MPH feet Rate Location/Type
07:21AM 39.3167 -94.7167 169° South 159 183 1,700  Level Kansas City TRACON
07:22AM 39.3633 -94.6842 28° Northeast 167 192 4,000 2,000 Climbing Kansas City Center
07:23AM 39.3281 -94.6372 134° Southeast 242 278 5,900 2,430 Climbing Kansas City Center
07:24AM 38.8980 -94.6329 170° South  Level FlightAware Approximate
07:24AM 39.2394 -94.6253 174° South 286 329 8,900  Level Kansas City Center
07:25AM 38.7943 -94.6098 170° South  Level FlightAware Approximate
07:25AM 39.1586 -94.6139 174° South 302 348 10,900  Level Kansas City Center
07:26AM 38.6909 -94.5852 169° South  Level FlightAware Approximate
07:26AM 39.0619 -94.5997 174° South 361 415 12,800  Level Kansas City Center
07:27AM 38.9653 -94.5858 174° South 363 418 15,100 2,350 Climbing Kansas City Center
07:28AM 38.8439 -94.5681 173° South 390 449 17,500 2,083 Climbing Kansas City Center
07:29AM 38.7375 -94.5533 174° South 397 457 19,300 1,835 Climbing Kansas City Center
07:30AM 38.6283 -94.5394 174° South 408 470 21,200 1,587 Climbing Kansas City Center
07:31AM 38.5150 -94.5228 173° South 426 490 22,500 1,587 Climbing Kansas City Center
07:32AM 38.3783 -94.5042 174° South 439 505 24,400 1,240 Climbing Kansas City Center
07:33AM 38.2597 -94.4739 169° South 451 519 25,000 298 Climbing Kansas City Center
07:34AM 38.1725 -94.3653 136° Southeast 454 522 25,000  Level Kansas City Center
07:35AM 38.0731 -94.2397 135° Southeast 452 520 25,000  Level Kansas City Center
07:36AM 37.9931 -94.1289 132° Southeast 449 517 25,000  Level Kansas City Center
07:37AM 37.9169 -93.9897 125° Southeast 443 510 25,000  Level Kansas City Center
07:38AM 37.8456 -93.8644 126° Southeast 439 505 25,000  Level Kansas City Center
07:39AM 37.7733 -93.7400 126° Southeast 439 505 25,000  Level Kansas City Center
07:40AM 37.7003 -93.6133 126° Southeast 444 511 25,000  Level Kansas City Center
07:41AM 37.6278 -93.4856 126° Southeast 447 514 25,000  Level Kansas City Center
07:42AM 37.5547 -93.3583 126° Southeast 447 514 25,000  Level Kansas City Center
07:43AM 37.4817 -93.2325 126° Southeast 447 514 25,000  Level Kansas City Center
07:44AM 37.4083 -93.1067 126° Southeast 446 513 25,000  Level Kansas City Center
07:45AM 37.3342 -92.9817 127° Southeast 446 513 25,000  Level Kansas City Center
07:46AM 37.2611 -92.8569 126° Southeast 445 512 25,000  Level Kansas City Center
07:47AM 37.1883 -92.7317 126° Southeast 444 511 25,000  Level Kansas City Center
07:48AM 37.1147 -92.6083 127° Southeast 443 510 25,000  Level Kansas City Center
07:49AM 37.0425 -92.4875 127° Southeast 438 504 25,000  Level Kansas City Center
07:50AM 36.9739 -92.3700 126° Southeast 428 493 25,000  Level Kansas City Center
07:51AM 36.9056 -92.2583 127° Southeast 415 478 25,000  Level Kansas City Center
07:52AM 36.8317 -92.1378 127° Southeast 421 484 25,000  Level Memphis Center
07:53AM 36.7625 -92.0222 127° Southeast 421 484 25,000  Level Memphis Center
07:54AM 36.6911 -91.9042 127° Southeast 421 484 25,000 -350 Level Memphis Center
07:55AM 36.6217 -91.7867 126° Southeast 421 484 24,300 -750 Descending Memphis Center
07:56AM 36.5478 -91.6692 128° Southeast 421 484 23,500 -750 Descending Memphis Center
07:57AM 36.4944 -91.5806 127° Southeast 421 484 22,800 -800 Descending Memphis Center
07:58AM 36.4267 -91.4736 128° Southeast 387 445 21,900 -850 Descending Memphis Center
07:59AM 36.3672 -91.3750 127° Southeast 368 423 21,100 -450 Descending Memphis Center
08:00AM 36.3033 -91.2764 129° Southeast 363 418 21,000 -50 Descending Memphis Center
08:01AM 36.2394 -91.1753 128° Southeast 368 423 21,000  Level Memphis Center
08:02AM 36.1775 -91.0692 126° Southeast 373 429 21,000  Level Memphis Center
08:03AM 36.1092 -90.9711 131° Southeast 378 435 21,000  Level Memphis Center
08:04AM 36.0008 -90.9292 163° South 372 428 21,000  Level Memphis Center
08:05AM 35.8928 -90.9003 168° South 384 442 21,000  Level Memphis Center
08:06AM 35.7781 -90.8714 168° South 403 464 21,000  Level Memphis Center
08:07AM 35.6614 -90.8375 167° South 409 471 21,000 -250 Level Memphis Center
08:08AM 35.5489 -90.8111 169° South 409 471 20,500 -1,600 Descending Memphis Center
08:09AM 35.4511 -90.7547 155° Southeast 409 471 17,800 -2,500 Descending Memphis Center
08:10AM 35.4097 -90.6450 115° Southeast 337 388 15,500 -2,000 Descending Memphis Center
08:11AM 35.3703 -90.5403 115° Southeast 337 388 13,800 -1,350 Descending Memphis Center
08:12AM 35.3244 -90.4436 120° Southeast 331 381 12,800 -1,050 Descending Memphis Center
08:13AM 35.2722 -90.3647 129° Southeast 312 359 11,700 -1,050 Descending Memphis Center
08:14AM 35.2222 -90.2883 129° Southeast 292 336 10,700 -1,000 Descending Memphis Center
08:15AM 35.1719 -90.2147 130° Southeast 281 323 9,700 -992 Descending Memphis Center
08:16AM 35.1261 -90.1464 129° Southeast 269 310 8,700 -1,050 Descending Memphis Center
08:17AM 35.0800 -90.1108 148° Southeast 242 278 7,600 -1,261 Descending Memphis Center
08:18AM 35.0133 -90.1136 182° South 228 262 6,200 -1,350 Descending Memphis Center
08:19AM 34.9486 -90.1114 178° South 233 268 4,900 -1,100 Descending Memphis Center
08:20AM 34.8819 -90.1064 176° South 233 268 4,000 -450 Descending Memphis Center
08:21AM 34.8233 -90.0967 172° South 228 262 4,000 -594 Level Memphis Center
08:23AM 34.8500 -89.9833 74° East 156 180 2,100 -625 Descending KMEM
08:24AM 34.9000 -89.9833 360° North 163 188 2,000 -50 Descending KMEM
08:25AM 34.9500 -89.9833 360° North 156 180 2,000  Level KMEM